Time;durP1;ratioP1;P1;durP2;ratioP2;P2;SDS_P1;SDS_P2;PMS_P1;PMS_P2;Temp;Humidity;BMP_temperature;BMP_pressure;BME280_temperature;BME280_humidity;BME280_pressure;Samples;Min_cycle;Max_cycle;Signal;HPM_P1;HPM_P2
2022/06/30 00:00:57;;;;;;;;;17.33;17.33;;;;;22.91;68.91;99204.59;6318821;20;3561682;-53
2022/06/30 00:03:25;;;;;;;;;21.33;20.33;;;;;22.64;70.46;99202.44;6284845;20;3573143;-52
2022/06/30 00:05:54;;;;;;;;;16.00;16.00;;;;;22.69;69.84;99211.81;6285528;20;3549188;-52
2022/06/30 00:08:23;;;;;;;;;13.67;13.67;;;;;22.60;71.22;99207.44;6312776;20;3532565;-52
2022/06/30 00:10:51;;;;;;;;;19.67;18.00;;;;;22.59;71.27;99205.72;6291354;20;3555477;-51
2022/06/30 00:13:20;;;;;;;;;19.00;18.33;;;;;22.74;69.54;99214.84;6315850;20;3570179;-51
2022/06/30 00:15:49;;;;;;;;;16.67;16.67;;;;;22.73;69.45;99221.34;6282368;20;3561690;-54
2022/06/30 00:18:18;;;;;;;;;15.00;15.00;;;;;22.75;69.45;99219.28;6278777;20;2798223;-53
2022/06/30 00:20:46;;;;;;;;;17.67;17.33;;;;;23.04;68.71;99220.44;6287384;20;3568980;-53
2022/06/30 00:23:15;;;;;;;;;19.00;18.00;;;;;22.50;70.97;99213.16;6282792;20;2820140;-53
2022/06/30 00:25:44;;;;;;;;;19.33;18.67;;;;;22.43;71.19;99209.44;6287216;20;3574295;-53
2022/06/30 00:28:12;;;;;;;;;19.00;19.00;;;;;22.52;70.59;99213.84;6286600;20;3555610;-51
2022/06/30 00:30:41;;;;;;;;;17.67;17.67;;;;;22.29;71.63;99202.03;6317339;20;3571127;-53
2022/06/30 00:33:10;;;;;;;;;18.33;17.00;;;;;22.28;71.68;99203.09;6281346;20;3566944;-52
2022/06/30 00:35:39;;;;;;;;;18.00;18.00;;;;;22.18;71.97;99199.69;6285014;20;3565843;-53
2022/06/30 00:38:08;;;;;;;;;18.67;18.00;;;;;22.06;72.68;99200.09;6284905;20;3563769;-51
2022/06/30 00:40:45;;;;;;;;;17.50;17.00;;;;;22.57;70.42;99203.19;6283678;20;2827385;-53
2022/06/30 00:43:14;;;;;;;;;20.67;16.67;;;;;22.44;71.09;99193.91;6286303;20;3565931;-53
2022/06/30 00:45:47;;;;;;;;;17.00;16.50;;;;;22.18;72.06;99194.22;6283054;20;2826507;-51
2022/06/30 00:48:18;;;;;;;;;20.00;16.33;;;;;22.18;71.41;99191.50;6284182;20;3561785;-51
2022/06/30 00:50:47;;;;;;;;;17.67;16.67;;;;;21.94;73.06;99187.88;6287397;20;3571060;-53
2022/06/30 00:53:18;;;;;;;;;23.00;19.00;;;;;21.95;73.51;99189.56;6280787;20;2843996;-54
2022/06/30 00:55:47;;;;;;;;;15.00;14.50;;;;;21.82;73.81;99192.88;6281029;20;2813787;-53
2022/06/30 00:58:18;;;;;;;;;22.00;19.33;;;;;21.86;72.76;99193.41;6284748;20;3559813;-53
2022/06/30 01:00:49;;;;;;;;;19.00;17.00;;;;;21.61;74.63;99196.22;6284505;20;3577320;-53
2022/06/30 01:03:20;;;;;;;;;17.00;17.00;;;;;21.48;74.83;99179.56;6278208;20;2835755;-50
2022/06/30 01:05:48;;;;;;;;;17.67;17.33;;;;;21.18;75.47;99184.75;6281939;20;3562777;-53
2022/06/30 01:08:18;;;;;;;;;21.00;19.33;;;;;21.20;76.14;99182.72;6280814;20;3576382;-53
2022/06/30 01:13:35;;;;;;;;;18.00;17.00;;;;;21.32;76.01;99179.59;6282645;20;2825365;-51
2022/06/30 01:16:05;;;;;;;;;20.00;18.00;;;;;21.21;76.23;99187.13;6283810;20;3567574;-51
2022/06/30 01:18:34;;;;;;;;;18.00;18.00;;;;;21.24;75.73;99186.78;6281807;20;2831566;-54
2022/06/30 01:21:03;;;;;;;;;21.00;18.00;;;;;20.99;76.59;99183.28;6282503;20;2835808;-54
2022/06/30 01:23:32;;;;;;;;;22.00;19.00;;;;;21.02;76.43;99184.81;6281414;20;2827377;-54
2022/06/30 01:26:01;;;;;;;;;22.00;20.00;;;;;21.08;76.39;99185.97;6285404;20;3579445;-52
2022/06/30 01:28:30;;;;;;;;;24.67;21.00;;;;;21.37;75.92;99185.38;6278430;20;3578354;-51
2022/06/30 01:31:00;;;;;;;;;23.00;21.00;;;;;21.46;74.92;99187.94;6312866;20;3568050;-53
2022/06/30 01:33:29;;;;;;;;;22.00;21.00;;;;;21.30;75.35;99192.56;6311900;20;3578394;-53
2022/06/30 01:35:57;;;;;;;;;16.50;16.50;;;;;21.18;75.29;99198.41;6281657;20;2831509;-55
2022/06/30 01:38:26;;;;;;;;;19.00;18.00;;;;;20.86;77.27;99190.28;6283280;20;2840023;-54
2022/06/30 01:40:55;;;;;;;;;18.00;16.50;;;;;20.94;75.69;99190.28;6281207;20;2829441;-54
2022/06/30 01:43:23;;;;;;;;;16.50;16.50;;;;;20.80;76.50;99181.78;6279009;20;2825309;-57
2022/06/30 01:45:52;;;;;;;;;16.67;16.67;;;;;20.26;78.82;99184.13;6285414;20;3564932;-53
2022/06/30 01:48:21;;;;;;;;;16.67;16.67;;;;;19.87;80.33;99195.63;6316428;20;3566922;-51
2022/06/30 01:50:49;;;;;;;;;21.00;17.50;;;;;20.18;79.39;99190.41;6282038;20;2833616;-52
2022/06/30 01:53:19;;;;;;;;;18.00;18.00;;;;;20.18;79.58;99186.84;6281577;20;2839919;-52
2022/06/30 01:55:48;;;;;;;;;20.67;19.00;;;;;20.03;80.12;99186.63;6314790;20;3572128;-51
2022/06/30 01:58:16;;;;;;;;;19.50;16.00;;;;;20.39;78.30;99184.47;6281046;20;2823183;-50
2022/06/30 02:00:45;;;;;;;;;21.50;18.50;;;;;20.52;77.46;99177.66;6279542;20;2839926;-51
2022/06/30 02:03:14;;;;;;;;;19.00;18.00;;;;;20.60;77.70;99185.88;6284071;20;3579440;-52
2022/06/30 02:05:43;;;;;;;;;19.00;17.33;;;;;20.57;77.95;99178.03;6281534;20;3559611;-53
2022/06/30 02:08:11;;;;;;;;;19.33;18.33;;;;;20.75;77.41;99183.31;6281650;20;3571076;-53
2022/06/30 02:10:40;;;;;;;;;13.67;13.33;;;;;20.77;77.41;99187.59;6277682;20;3534603;-51
2022/06/30 02:13:09;;;;;;;;;17.50;17.00;;;;;21.07;74.91;99187.88;6277974;20;2833599;-51
2022/06/30 02:15:37;;;;;;;;;23.00;20.00;;;;;20.73;76.61;99188.09;6282430;20;3573129;-53
2022/06/30 02:18:08;;;;;;;;;18.00;18.00;;;;;20.73;77.15;99183.47;6279227;20;2828526;-51
2022/06/30 02:20:37;;;;;;;;;23.50;18.50;;;;;20.61;77.67;99191.13;6277902;20;2841965;-50
2022/06/30 02:23:06;;;;;;;;;17.00;17.00;;;;;20.96;76.29;99185.50;6279637;20;2831502;-52
2022/06/30 02:25:35;;;;;;;;;20.00;18.33;;;;;20.77;76.46;99194.88;6284149;20;3557677;-50
2022/06/30 02:28:05;;;;;;;;;21.50;18.00;;;;;20.77;76.65;99198.50;6283041;20;2722191;-51
2022/06/30 02:30:34;;;;;;;;;19.67;17.67;;;;;20.75;76.33;99199.69;6316144;20;3569041;-53
2022/06/30 02:33:03;;;;;;;;;18.50;18.50;;;;;20.51;78.28;99208.66;6277290;20;2846171;-52
2022/06/30 02:35:33;;;;;;;;;23.00;18.33;;;;;20.33;76.95;99214.31;6280339;20;2839929;-53
2022/06/30 02:38:10;;;;;;;;;16.67;16.33;;;;;20.35;77.91;99210.41;6313300;20;3561709;-47
2022/06/30 02:40:40;;;;;;;;;18.67;17.67;;;;;20.43;76.73;99216.84;6279720;20;2839913;-59
2022/06/30 02:43:08;;;;;;;;;16.33;15.00;;;;;20.25;77.75;99220.59;6313697;20;3552333;-57
2022/06/30 02:45:37;;;;;;;;;23.00;19.00;;;;;20.04;78.78;99212.03;6279733;20;3563880;-59
2022/06/30 02:48:06;;;;;;;;;17.00;17.00;;;;;19.99;78.86;99217.13;6279839;20;2844048;-55
2022/06/30 02:50:34;;;;;;;;;14.33;13.33;;;;;19.69;79.84;99211.22;6282488;20;3539873;-55
2022/06/30 02:53:04;;;;;;;;;18.00;18.00;;;;;19.99;78.91;99218.00;6278129;20;2831665;-54
2022/06/30 02:55:33;;;;;;;;;20.00;18.50;;;;;20.09;77.95;99218.69;6280939;20;2844061;-53
2022/06/30 02:58:01;;;;;;;;;20.00;18.67;;;;;20.02;78.79;99220.38;6283103;20;3554447;-52
2022/06/30 03:00:30;;;;;;;;;17.00;17.00;;;;;20.41;76.44;99222.50;6311259;20;2833603;-54
2022/06/30 03:02:59;;;;;;;;;21.00;17.00;;;;;20.61;75.26;99233.94;6281297;20;3563838;-52
2022/06/30 03:05:28;;;;;;;;;21.67;19.67;;;;;20.43;76.09;99222.31;6281632;20;3577318;-53
2022/06/30 03:07:56;;;;;;;;;21.50;20.50;;;;;20.50;76.46;99228.78;6279695;20;2844150;-53
2022/06/30 03:10:25;;;;;;;;;17.00;17.00;;;;;20.79;74.71;99229.16;6279565;20;2837803;-52
2022/06/30 03:12:54;;;;;;;;;20.00;20.00;;;;;20.56;75.04;99234.47;6284270;20;3575468;-55
2022/06/30 03:15:22;;;;;;;;;23.67;18.67;;;;;20.79;74.72;99229.16;6281958;20;3579444;-51
2022/06/30 03:17:52;;;;;;;;;17.67;17.67;;;;;20.63;75.23;99228.31;6279075;20;2837932;-49
2022/06/30 03:20:21;;;;;;;;;22.00;20.33;;;;;20.81;74.38;99237.19;6313225;20;3583604;-49
2022/06/30 03:22:49;;;;;;;;;21.00;18.00;;;;;20.49;75.95;99238.84;6278850;20;2830485;-49
2022/06/30 03:25:19;;;;;;;;;20.00;19.00;;;;;20.98;73.90;99243.47;6279329;20;2850389;-52
2022/06/30 03:27:48;;;;;;;;;19.33;19.33;;;;;21.10;73.88;99244.00;6314253;20;3580424;-52
2022/06/30 03:30:16;;;;;;;;;22.00;21.00;;;;;20.94;74.39;99244.88;6280598;20;3585665;-52
2022/06/30 03:32:45;;;;;;;;;19.00;18.00;;;;;21.15;73.71;99245.16;6281611;20;2837760;-55
2022/06/30 03:35:13;;;;;;;;;21.67;19.00;;;;;21.02;74.49;99245.69;6284027;20;3572160;-55
2022/06/30 03:37:42;;;;;;;;;21.33;19.67;;;;;21.07;74.03;99247.91;6278544;20;3570159;-54
2022/06/30 03:40:12;;;;;;;;;20.00;19.00;;;;;21.03;74.85;99246.53;6312002;20;3555588;-50
2022/06/30 03:42:40;;;;;;;;;18.50;17.50;;;;;21.42;72.71;99245.81;6281319;20;3452333;-51
2022/06/30 03:45:09;;;;;;;;;20.00;18.67;;;;;21.03;74.75;99241.94;6311942;20;3570311;-53
2022/06/30 03:47:37;;;;;;;;;8.00;7.00;;;;;21.18;74.35;99250.28;6279544;20;2747241;-52
2022/06/30 03:50:09;;;;;;;;;21.00;20.00;;;;;21.22;74.08;99243.47;6267158;20;2845198;-55
2022/06/30 03:52:37;;;;;;;;;21.33;20.33;;;;;21.34;74.65;99245.81;6310111;20;3577313;-51
2022/06/30 03:55:07;;;;;;;;;24.67;21.00;;;;;21.18;75.35;99261.19;6276491;20;3591986;-58
2022/06/30 03:57:36;;;;;;;;;20.00;20.00;;;;;21.20;75.40;99258.31;6278634;20;3579516;-58
2022/06/30 04:00:07;;;;;;;;;25.67;22.67;;;;;21.47;73.29;99257.06;6279396;20;3591398;-59
2022/06/30 04:02:35;;;;;;;;;23.00;20.33;;;;;21.39;74.75;99257.94;6283917;20;3582580;-57
2022/06/30 04:05:06;;;;;;;;;25.00;21.33;;;;;21.45;74.37;99261.84;6280550;20;3579773;-57
2022/06/30 04:07:41;;;;;;;;;21.67;21.00;;;;;21.69;73.61;99264.50;6280722;20;2850359;-58
2022/06/30 04:10:13;;;;;;;;;18.00;18.00;;;;;21.82;73.69;99272.16;6316098;20;3567004;-57
2022/06/30 04:12:42;;;;;;;;;21.00;21.00;;;;;21.82;73.17;99268.56;6285941;20;3575276;-57
2022/06/30 04:15:12;;;;;;;;;21.00;19.00;;;;;21.96;70.95;99270.56;6292172;20;3574195;-57
2022/06/30 04:17:41;;;;;;;;;19.00;19.00;;;;;21.92;72.84;99272.78;6314631;20;3571081;-58
2022/06/30 04:20:16;;;;;;;;;21.67;21.33;;;;;22.08;72.52;99268.28;6288447;20;3585767;-58
2022/06/30 04:22:50;;;;;;;;;22.67;19.33;;;;;22.45;70.94;99269.47;6284906;20;3574333;-56
2022/06/30 04:25:19;;;;;;;;;18.67;18.67;;;;;22.66;69.93;99266.06;6284623;20;2491985;-58
2022/06/30 04:27:54;;;;;;;;;21.33;21.33;;;;;22.67;68.88;99267.75;6314182;20;3583647;-54
2022/06/30 04:33:09;;;;;;;;;24.67;23.33;;;;;22.72;69.45;99265.31;6287644;20;3586681;-54
2022/06/30 04:35:38;;;;;;;;;19.67;19.00;;;;;22.91;68.80;99270.31;6282394;20;3571297;-54
2022/06/30 04:38:07;;;;;;;;;21.00;21.00;;;;;22.80;69.21;99276.19;6276816;20;3577321;-53
2022/06/30 04:43:23;;;;;;;;;20.33;17.33;;;;;23.37;66.12;99281.19;6286243;20;3573165;-52
2022/06/30 04:45:51;;;;;;;;;21.00;21.00;;;;;23.51;65.50;99279.50;6282360;20;3567965;-54
2022/06/30 04:48:21;;;;;;;;;22.00;20.67;;;;;23.52;65.51;99280.38;6282293;20;3576280;-52
2022/06/30 04:50:49;;;;;;;;;21.00;20.33;;;;;23.36;65.56;99278.66;6315560;20;3574178;-52
2022/06/30 04:53:18;;;;;;;;;18.00;18.00;;;;;23.50;66.65;99274.22;6287114;20;3564805;-53
2022/06/30 04:55:47;;;;;;;;;19.00;18.00;;;;;23.78;64.16;99272.56;6282165;20;3573168;-53
2022/06/30 04:58:16;;;;;;;;;23.33;20.67;;;;;24.01;64.25;99269.72;6285581;20;3577413;-53
2022/06/30 05:00:45;;;;;;;;;19.67;19.67;;;;;24.14;64.24;99276.38;6284168;20;2833698;-51
2022/06/30 05:03:14;;;;;;;;;21.00;21.00;;;;;24.10;65.14;99275.94;6316938;20;3574214;-51
2022/06/30 05:05:43;;;;;;;;;20.00;20.00;;;;;24.27;64.54;99274.66;6286174;20;2654408;-54
2022/06/30 05:08:11;;;;;;;;;25.67;21.67;;;;;24.27;64.75;99280.13;6318343;20;3589833;-55
2022/06/30 05:10:40;;;;;;;;;23.67;20.67;;;;;24.67;63.47;99277.00;6285214;20;3557595;-56
2022/06/30 05:13:09;;;;;;;;;21.00;21.00;;;;;24.78;63.19;99278.38;6285950;20;3572129;-54
2022/06/30 05:15:38;;;;;;;;;20.33;19.67;;;;;25.04;62.92;99273.16;6283389;20;3581605;-54
2022/06/30 05:18:07;;;;;;;;;21.00;20.33;;;;;25.11;62.57;99268.56;6283374;20;3568009;-54
2022/06/30 05:20:36;;;;;;;;;20.00;19.33;;;;;25.40;61.97;99272.19;6287825;20;3565863;-51
2022/06/30 05:23:05;;;;;;;;;20.33;19.00;;;;;25.45;61.92;99264.19;6286256;20;3554551;-52
2022/06/30 05:28:21;;;;;;;;;19.00;19.00;;;;;25.96;60.43;99271.28;6285207;20;3579401;-56
2022/06/30 05:30:51;;;;;;;;;21.33;19.00;;;;;26.20;59.66;99280.94;6286633;20;3564937;-54
2022/06/30 05:33:20;;;;;;;;;19.67;19.33;;;;;26.33;60.61;99283.72;6284146;20;3591906;-54
2022/06/30 05:35:54;;;;;;;;;20.33;18.00;;;;;26.82;58.58;99281.75;6285955;20;3566929;-53
2022/06/30 05:38:24;;;;;;;;;20.67;19.00;;;;;26.68;58.42;99275.38;6279013;20;2838887;-56
2022/06/30 05:40:52;;;;;;;;;19.00;19.00;;;;;26.99;58.35;99282.19;6314477;20;2831781;-53
2022/06/30 05:43:21;;;;;;;;;19.00;19.00;;;;;26.96;57.67;99280.69;6283384;20;3565847;-54
2022/06/30 05:45:52;;;;;;;;;18.00;18.00;;;;;27.24;57.07;99277.78;6287291;20;3564809;-56
2022/06/30 05:48:21;;;;;;;;;21.00;18.33;;;;;27.44;56.41;99280.53;6283771;20;3573167;-56
2022/06/30 05:50:50;;;;;;;;;19.00;18.00;;;;;27.70;55.39;99279.63;6281585;20;2844049;-55
2022/06/30 05:53:19;;;;;;;;;17.33;17.33;;;;;27.60;56.05;99289.44;6286626;20;3552308;-56
2022/06/30 05:55:47;;;;;;;;;18.33;17.33;;;;;27.83;56.40;99283.44;6285611;20;3553391;-56
2022/06/30 05:58:19;;;;;;;;;21.71;20.43;;;;;28.27;54.93;99290.09;6312972;20;3584211;-55
2022/06/30 06:00:47;;;;;;;;;21.00;19.67;;;;;28.48;54.45;99291.72;6284536;20;3557522;-56
2022/06/30 06:03:17;;;;;;;;;17.00;15.00;;;;;28.78;53.37;99297.47;6283145;20;2819119;-57
2022/06/30 06:05:46;;;;;;;;;15.00;15.00;;;;;28.77;51.03;99302.16;6281345;20;2798199;-57
2022/06/30 06:08:14;;;;;;;;;14.00;13.50;;;;;29.17;49.37;99301.06;6282950;20;2808634;-56
2022/06/30 06:10:43;;;;;;;;;14.00;14.00;;;;;29.19;49.07;99301.69;6282286;20;2803382;-55
2022/06/30 06:13:13;;;;;;;;;16.33;15.00;;;;;29.30;47.29;99306.50;6285110;20;3543986;-54
2022/06/30 06:15:41;;;;;;;;;14.00;14.00;;;;;29.53;47.31;99309.47;6316510;20;3539847;-55
2022/06/30 06:18:10;;;;;;;;;16.00;14.00;;;;;29.83;45.03;99311.53;6315661;20;3541444;-56
2022/06/30 06:20:41;;;;;;;;;14.67;13.33;;;;;30.00;45.55;99309.03;6315660;20;3534663;-56
2022/06/30 06:23:29;;;;;;;;;15.00;14.00;;;;;30.30;45.03;99306.34;6313356;20;2483613;-56
2022/06/30 06:25:58;;;;;;;;;15.00;13.33;;;;;30.21;44.29;99318.81;6314681;20;2483632;-57
2022/06/30 06:31:14;;;;;;;;;16.00;15.33;;;;;30.59;45.52;99317.69;6285261;20;3552480;-57
2022/06/30 06:33:44;;;;;;;;;14.67;14.67;;;;;31.18;43.80;99321.56;6317513;20;3536748;-57
2022/06/30 06:36:13;;;;;;;;;12.67;12.67;;;;;31.62;41.20;99324.88;6315580;20;2483601;-57
2022/06/30 06:38:42;;;;;;;;;17.00;15.00;;;;;31.48;41.43;99323.44;6310373;20;2816921;-58
2022/06/30 06:41:11;;;;;;;;;15.00;13.00;;;;;31.81;41.32;99319.22;6281093;20;2804447;-57
2022/06/30 06:43:39;;;;;;;;;11.67;10.00;;;;;31.85;40.72;99328.75;6284860;20;3509706;-57
2022/06/30 06:46:08;;;;;;;;;18.00;14.00;;;;;32.44;39.37;99325.91;6315053;20;3533561;-57
2022/06/30 06:48:36;;;;;;;;;15.33;12.33;;;;;32.51;39.60;99327.47;6316982;20;3537776;-57
2022/06/30 06:51:05;;;;;;;;;15.67;12.67;;;;;32.22;40.19;99323.78;6311652;20;3520057;-57
2022/06/30 06:53:35;;;;;;;;;17.00;16.00;;;;;33.03;37.73;99322.94;6311880;20;2824211;-58
2022/06/30 06:56:05;;;;;;;;;12.00;11.33;;;;;32.86;37.76;99326.50;6278969;20;3536749;-57
2022/06/30 06:58:33;;;;;;;;;14.00;14.00;;;;;33.11;38.38;99325.31;6281791;20;2483723;-55
2022/06/30 07:01:02;;;;;;;;;11.33;11.00;;;;;33.43;37.40;99323.63;6315620;20;3511698;-57
2022/06/30 07:03:31;;;;;;;;;12.67;12.33;;;;;33.63;36.01;99327.91;6317682;20;3518071;-57
2022/06/30 07:06:00;;;;;;;;;12.33;12.33;;;;;33.39;37.83;99327.19;6314571;20;3539924;-57
2022/06/30 07:08:29;;;;;;;;;13.67;12.00;;;;;33.38;37.50;99329.13;6317655;20;3535695;-57
2022/06/30 07:10:57;;;;;;;;;13.00;10.33;;;;;34.01;37.05;99323.44;6316830;20;3509715;-58
2022/06/30 07:13:32;;;;;;;;;15.00;14.50;;;;;34.04;36.51;99334.06;6312556;20;2807651;-57
2022/06/30 07:16:02;;;;;;;;;13.00;12.00;;;;;34.13;36.33;99329.78;6282790;20;3535912;-58
2022/06/30 07:18:31;;;;;;;;;11.00;11.00;;;;;34.40;32.78;99331.78;6313644;20;3517039;-57
2022/06/30 07:20:59;;;;;;;;;11.00;11.00;;;;;34.61;33.71;99333.75;6315818;20;3506479;-58
2022/06/30 07:23:28;;;;;;;;;9.33;9.33;;;;;34.50;34.74;99340.28;6318427;20;2760776;-57
2022/06/30 07:25:58;;;;;;;;;12.00;11.00;;;;;34.64;34.79;99327.66;6314132;20;2483735;-56
2022/06/30 07:28:27;;;;;;;;;11.33;10.00;;;;;34.75;32.84;99323.88;6309432;20;3507596;-57
2022/06/30 07:31:16;;;;;;;;;12.33;11.33;;;;;34.62;32.76;99313.13;6280687;20;3509680;-58
2022/06/30 07:33:44;;;;;;;;;13.00;12.00;;;;;33.90;34.18;99311.31;6279873;20;2794312;-58
2022/06/30 07:36:13;;;;;;;;;15.67;12.00;;;;;34.56;35.09;99313.31;6281744;20;3544069;-58
2022/06/30 07:38:44;;;;;;;;;13.33;11.00;;;;;34.94;34.43;99315.13;6281502;20;2483621;-58
2022/06/30 07:41:13;;;;;;;;;14.00;14.00;;;;;35.16;34.45;99313.16;6314318;20;3536684;-58
2022/06/30 07:43:41;;;;;;;;;15.00;13.00;;;;;34.31;34.04;99318.31;6320656;20;3533560;-58
2022/06/30 07:46:10;;;;;;;;;12.00;12.00;;;;;34.88;35.07;99316.19;6317699;20;3527352;-58
2022/06/30 07:48:39;;;;;;;;;11.33;10.00;;;;;35.36;33.66;99311.66;6316748;20;3502344;-56
2022/06/30 07:51:07;;;;;;;;;11.00;11.00;;;;;34.46;34.23;99305.66;6315330;20;2783616;-57
2022/06/30 07:53:36;;;;;;;;;9.00;9.00;;;;;34.97;33.07;99306.25;6287283;20;3475706;-58
2022/06/30 07:56:05;;;;;;;;;10.67;9.67;;;;;35.18;33.31;99299.78;6317560;20;2778960;-56
2022/06/30 07:58:34;;;;;;;;;12.00;10.67;;;;;35.72;31.42;99303.56;6323635;20;2798269;-58
2022/06/30 08:01:02;;;;;;;;;11.33;11.00;;;;;35.01;31.69;99290.66;6321880;20;3513762;-58
2022/06/30 08:03:31;;;;;;;;;9.00;9.00;;;;;35.57;31.69;99295.88;6314915;20;3470093;-58
2022/06/30 08:06:00;;;;;;;;;10.67;10.00;;;;;35.48;31.04;99297.50;6318757;20;2484119;-56
2022/06/30 08:08:29;;;;;;;;;9.67;9.67;;;;;35.49;32.25;99302.81;6318726;20;2768783;-57
2022/06/30 08:10:57;;;;;;;;;11.00;11.00;;;;;35.67;31.40;99293.19;6321584;20;2778419;-57
2022/06/30 08:13:33;;;;;;;;;8.67;8.67;;;;;35.26;30.43;99294.81;6316816;20;3462710;-58
2022/06/30 08:16:03;;;;;;;;;11.00;11.00;;;;;35.66;29.74;99299.91;6320427;20;3517934;-58
2022/06/30 08:18:31;;;;;;;;;9.33;9.33;;;;;35.83;31.03;99288.56;6312090;20;3481484;-58
2022/06/30 08:21:00;;;;;;;;;13.00;11.33;;;;;35.91;30.67;99296.41;6316499;20;3518051;-57
2022/06/30 08:23:29;;;;;;;;;10.00;9.00;;;;;35.74;29.74;99301.38;6318769;20;2759691;-58
2022/06/30 08:25:58;;;;;;;;;10.33;10.00;;;;;34.86;29.35;99293.28;6324228;20;2781580;-63
2022/06/30 08:28:27;;;;;;;;;8.33;7.67;;;;;35.78;29.08;99294.09;6324621;20;2753485;-63
2022/06/30 08:30:55;;;;;;;;;9.33;9.33;;;;;36.30;29.27;99304.47;6319853;20;2771103;-63
2022/06/30 08:33:24;;;;;;;;;12.00;11.00;;;;;36.43;28.78;99298.38;6313902;20;2796178;-63
2022/06/30 08:35:52;;;;;;;;;10.00;10.00;;;;;36.35;28.25;99296.13;6289369;20;2786726;-63
2022/06/30 08:38:28;;;;;;;;;9.00;9.00;;;;;36.19;29.11;99292.41;6315092;20;3463839;-63
2022/06/30 08:43:46;;;;;;;;;9.67;9.00;;;;;36.39;27.85;99297.25;6320081;20;2483738;-63
2022/06/30 08:46:16;;;;;;;;;10.33;10.33;;;;;36.84;27.62;99289.31;6313196;20;3503342;-63
2022/06/30 08:48:45;;;;;;;;;9.00;8.00;;;;;36.46;27.97;99295.03;6281186;20;3466931;-63
2022/06/30 08:51:15;;;;;;;;;10.00;9.00;;;;;36.01;26.56;99282.50;6313902;20;2771178;-64
2022/06/30 08:53:56;;;;;;;;;8.00;8.00;;;;;36.31;26.03;99288.53;6311909;20;3466950;-63
2022/06/30 08:56:36;;;;;;;;;10.00;8.33;;;;;36.21;26.85;99283.78;6313374;20;3474182;-63
2022/06/30 08:59:05;;;;;;;;;11.33;9.00;;;;;37.09;26.85;99291.31;6309679;20;2768148;-63
2022/06/30 09:01:34;;;;;;;;;8.67;7.33;;;;;37.50;26.65;99285.75;6315714;20;3462733;-63
2022/06/30 09:04:06;;;;;;;;;10.67;9.00;;;;;37.50;25.53;99283.78;6317198;20;2475344;-63
2022/06/30 09:06:34;;;;;;;;;11.00;8.00;;;;;38.00;25.98;99289.59;6321787;20;2777410;-63
2022/06/30 09:09:06;;;;;;;;;9.00;7.33;;;;;36.98;25.12;99289.59;6314334;20;2748711;-62
2022/06/30 09:11:56;;;;;;;;;9.33;7.33;;;;;37.12;25.82;99282.34;6324131;20;2743752;-62
2022/06/30 09:14:42;;;;;;;;;10.67;9.33;;;;;37.52;24.80;99280.69;6311865;20;2781596;-63
2022/06/30 09:17:33;;;;;;;;;7.67;6.33;;;;;36.62;26.23;99272.72;6319878;20;2742944;-62
2022/06/30 09:20:13;;;;;;;;;8.67;8.67;;;;;36.63;25.51;99269.66;6317066;20;3461731;-62
2022/06/30 09:22:43;;;;;;;;;10.67;8.67;;;;;37.04;25.61;99266.13;6311569;20;3485640;-62
2022/06/30 09:25:20;;;;;;;;;9.00;9.00;;;;;36.85;25.47;99266.63;6317193;20;2749314;-61
2022/06/30 09:27:48;;;;;;;;;8.00;8.00;;;;;36.84;26.29;99270.56;6318211;20;2743060;-62
2022/06/30 09:30:21;;;;;;;;;8.00;8.00;;;;;36.90;25.98;99263.84;6317924;20;2750371;-62
2022/06/30 09:33:06;;;;;;;;;6.67;6.67;;;;;36.68;25.79;99266.88;6315664;20;3449203;-62
2022/06/30 09:35:38;;;;;;;;;8.00;8.00;;;;;37.25;25.58;99267.78;6318658;20;2750370;-62
2022/06/30 09:38:14;;;;;;;;;10.00;9.00;;;;;37.35;24.59;99269.75;6312723;20;2765995;-62
2022/06/30 09:41:04;;;;;;;;;6.33;6.33;;;;;36.71;24.42;99265.50;6316865;20;2745112;-62
2022/06/30 09:43:37;;;;;;;;;8.67;8.67;;;;;36.57;25.43;99261.53;6316969;20;2743619;-62
2022/06/30 09:46:06;;;;;;;;;11.00;9.67;;;;;36.92;25.46;99261.59;6312739;20;3507553;-60
2022/06/30 09:48:40;;;;;;;;;7.00;7.00;;;;;36.89;24.43;99256.56;6328728;20;2741996;-61
2022/06/30 09:51:09;;;;;;;;;7.33;7.33;;;;;37.00;24.25;99262.19;6314499;20;3461781;-61
2022/06/30 09:53:38;;;;;;;;;7.00;7.00;;;;;37.05;24.35;99267.78;6320479;20;2749286;-61
2022/06/30 09:56:16;;;;;;;;;8.67;6.33;;;;;36.84;24.56;99256.56;6317961;20;2739839;-62
2022/06/30 09:58:45;;;;;;;;;9.33;8.00;;;;;37.10;24.92;99262.19;6323004;20;2759763;-61
2022/06/30 10:01:16;;;;;;;;;5.00;5.00;;;;;37.13;23.83;99262.50;6323650;20;2744235;-59
2022/06/30 10:03:59;;;;;;;;;7.33;7.00;;;;;37.31;25.08;99258.28;6313923;20;3455453;-58
2022/06/30 10:06:28;;;;;;;;;8.00;5.33;;;;;36.95;24.01;99259.38;6315869;20;2742080;-59
2022/06/30 10:08:57;;;;;;;;;9.33;8.00;;;;;36.61;24.23;99254.28;6315911;20;2762824;-59
2022/06/30 10:11:26;;;;;;;;;8.33;8.33;;;;;37.43;24.50;99257.16;6328268;20;2748186;-58
2022/06/30 10:13:55;;;;;;;;;9.33;9.33;;;;;37.68;23.87;99257.16;6317795;20;3481655;-59
2022/06/30 10:16:27;;;;;;;;;9.00;8.00;;;;;37.50;24.17;99254.94;6315278;20;2744049;-61
2022/06/30 10:18:56;;;;;;;;;8.00;6.00;;;;;37.06;23.37;99239.53;6324429;20;2752371;-60
2022/06/30 10:21:25;;;;;;;;;10.33;6.33;;;;;37.24;22.78;99245.69;6322997;20;2771200;-57
2022/06/30 10:23:54;;;;;;;;;5.67;5.67;;;;;37.27;23.10;99239.53;6317669;20;2746100;-58
2022/06/30 10:29:11;;;;;;;;;6.67;6.67;;;;;37.51;22.50;99239.81;6317764;20;2752433;-60
2022/06/30 10:32:07;;;;;;;;;8.00;8.00;;;;;37.96;22.93;99241.66;6316455;20;2751349;-59
2022/06/30 10:34:55;;;;;;;;;6.00;6.00;;;;;37.94;22.79;99232.69;6318678;20;2736708;-58
2022/06/30 10:37:50;;;;;;;;;6.00;6.00;;;;;38.27;21.90;99230.31;6315030;20;2736734;-58
2022/06/30 10:41:10;;;;;;;;;6.67;5.00;;;;;38.16;22.17;99229.53;6312807;20;2739955;-59
2022/06/30 10:44:03;;;;;;;;;5.67;4.00;;;;;38.27;20.11;99232.28;6316719;20;2744552;-60
2022/06/30 10:46:56;;;;;;;;;6.00;6.00;;;;;38.55;21.11;99226.00;6317392;20;2739954;-58
2022/06/30 10:49:27;;;;;;;;;8.00;5.67;;;;;38.01;21.94;99221.19;6317278;20;2742022;-59
2022/06/30 10:52:34;;;;;;;;;8.00;7.00;;;;;38.48;22.33;99217.03;6323481;20;2756609;-58
2022/06/30 10:55:06;;;;;;;;;6.67;6.67;;;;;37.90;21.45;99225.13;6310261;20;3460814;-60
2022/06/30 10:58:10;;;;;;;;;7.33;6.00;;;;;38.08;21.71;99215.28;6316520;20;2741914;-60
2022/06/30 11:00:58;;;;;;;;;5.00;5.00;;;;;38.18;21.10;99204.84;6312350;20;2741009;-58
2022/06/30 11:03:33;;;;;;;;;8.00;6.00;;;;;38.16;21.51;99212.72;6326105;20;2744061;-58
2022/06/30 11:06:12;;;;;;;;;6.00;6.00;;;;;38.36;22.18;99216.50;6318261;20;2737740;-58
2022/06/30 11:08:58;;;;;;;;;8.67;7.00;;;;;38.37;22.22;99204.19;6321253;20;2738862;-58
2022/06/30 11:11:28;;;;;;;;;7.33;7.33;;;;;38.32;22.11;99215.44;6318956;20;2733755;-60
2022/06/30 11:14:02;;;;;;;;;10.00;6.33;;;;;37.76;20.86;99211.72;6313964;20;3487780;-58
2022/06/30 11:16:34;;;;;;;;;6.00;6.00;;;;;38.28;21.42;99198.31;6330646;20;2733642;-60
2022/06/30 11:19:14;;;;;;;;;6.33;6.33;;;;;38.31;21.59;99208.13;6320993;20;2735724;-58
2022/06/30 11:21:44;;;;;;;;;7.67;7.67;;;;;38.65;20.90;99208.22;6322350;20;2752350;-58
2022/06/30 11:24:16;;;;;;;;;7.67;7.67;;;;;38.66;21.64;99209.91;6322277;20;2748289;-59
2022/06/30 11:29:34;;;;;;;;;7.00;7.00;;;;;38.71;21.60;99194.97;6321051;20;2756634;-58
2022/06/30 11:32:04;;;;;;;;;7.67;5.33;;;;;38.30;20.87;99189.63;6331064;20;2737731;-58
2022/06/30 11:34:37;;;;;;;;;9.67;6.00;;;;;38.66;21.67;99181.03;6321303;20;2764934;-59
2022/06/30 11:37:05;;;;;;;;;6.00;4.67;;;;;38.20;21.33;99196.97;6321861;20;2735667;-59
2022/06/30 11:39:35;;;;;;;;;8.00;8.00;;;;;38.20;21.17;99184.91;6323695;20;2747148;-61
2022/06/30 11:42:07;;;;;;;;;10.00;7.00;;;;;37.93;20.76;99179.69;6321845;20;2483695;-60
2022/06/30 11:44:42;;;;;;;;;7.67;7.67;;;;;37.77;21.71;99184.53;6329207;20;2748156;-56
2022/06/30 11:47:16;;;;;;;;;8.00;8.00;;;;;38.08;21.21;99185.28;6328517;20;2756556;-58